sensor_id;sensor_type;location;lat;lon;timestamp;temperature;humidity
1570;DHT22;778;50.120;8.698;2023-05-13T00:00:24;14.10;99.90
1570;DHT22;778;50.120;8.698;2023-05-13T00:02:52;14.00;99.90
1570;DHT22;778;50.120;8.698;2023-05-13T00:05:21;13.90;99.90
1570;DHT22;778;50.120;8.698;2023-05-13T00:07:49;13.90;99.90
1570;DHT22;778;50.120;8.698;2023-05-13T00:10:18;13.80;99.90
1570;DHT22;778;50.120;8.698;2023-05-13T00:12:48;13.80;99.90
1570;DHT22;778;50.120;8.698;2023-05-13T00:15:17;13.70;99.90
1570;DHT22;778;50.120;8.698;2023-05-13T00:17:46;13.70;99.90
1570;DHT22;778;50.120;8.698;2023-05-13T00:20:14;13.70;99.90
1570;DHT22;778;50.120;8.698;2023-05-13T00:22:43;13.70;99.90
1570;DHT22;778;50.120;8.698;2023-05-13T00:25:11;13.80;99.90
1570;DHT22;778;50.120;8.698;2023-05-13T00:27:40;13.80;99.90
1570;DHT22;778;50.120;8.698;2023-05-13T00:30:12;13.80;99.90
1570;DHT22;778;50.120;8.698;2023-05-13T00:32:43;13.80;99.90
1570;DHT22;778;50.120;8.698;2023-05-13T00:35:12;13.90;99.90
1570;DHT22;778;50.120;8.698;2023-05-13T00:37:40;14.00;99.90
1570;DHT22;778;50.120;8.698;2023-05-13T00:40:16;14.00;99.90
1570;DHT22;778;50.120;8.698;2023-05-13T00:42:47;14.00;99.90
1570;DHT22;778;50.120;8.698;2023-05-13T00:45:17;14.00;99.90
1570;DHT22;778;50.120;8.698;2023-05-13T00:47:47;14.00;99.90
1570;DHT22;778;50.120;8.698;2023-05-13T00:50:16;14.00;99.90
1570;DHT22;778;50.120;8.698;2023-05-13T00:52:46;14.20;99.90
1570;DHT22;778;50.120;8.698;2023-05-13T00:55:17;14.30;99.90
1570;DHT22;778;50.120;8.698;2023-05-13T00:57:45;14.30;99.90
1570;DHT22;778;50.120;8.698;2023-05-13T01:00:14;14.30;99.90
1570;DHT22;778;50.120;8.698;2023-05-13T01:02:52;14.30;99.90
1570;DHT22;778;50.120;8.698;2023-05-13T01:05:33;14.20;99.90
1570;DHT22;778;50.120;8.698;2023-05-13T01:08:16;14.00;99.90
1570;DHT22;778;50.120;8.698;2023-05-13T01:10:50;14.00;99.90
1570;DHT22;778;50.120;8.698;2023-05-13T01:13:24;14.00;99.90
1570;DHT22;778;50.120;8.698;2023-05-13T01:15:59;14.00;99.90
1570;DHT22;778;50.120;8.698;2023-05-13T01:18:34;14.00;99.90
1570;DHT22;778;50.120;8.698;2023-05-13T01:21:05;14.00;99.90
1570;DHT22;778;50.120;8.698;2023-05-13T01:23:35;14.00;99.90
1570;DHT22;778;50.120;8.698;2023-05-13T01:26:04;14.00;99.90
1570;DHT22;778;50.120;8.698;2023-05-13T01:28:33;13.90;99.90
1570;DHT22;778;50.120;8.698;2023-05-13T01:31:02;13.90;99.90
1570;DHT22;778;50.120;8.698;2023-05-13T01:33:31;13.90;99.90
1570;DHT22;778;50.120;8.698;2023-05-13T01:36:00;13.80;99.90
1570;DHT22;778;50.120;8.698;2023-05-13T01:38:30;13.90;99.90
1570;DHT22;778;50.120;8.698;2023-05-13T01:41:01;13.90;99.90
1570;DHT22;778;50.120;8.698;2023-05-13T01:43:30;13.90;99.90
1570;DHT22;778;50.120;8.698;2023-05-13T01:45:59;13.80;99.90
1570;DHT22;778;50.120;8.698;2023-05-13T01:48:28;13.90;99.90
1570;DHT22;778;50.120;8.698;2023-05-13T01:50:57;13.90;99.90
1570;DHT22;778;50.120;8.698;2023-05-13T01:53:25;13.90;99.90
1570;DHT22;778;50.120;8.698;2023-05-13T01:55:54;13.90;99.90
1570;DHT22;778;50.120;8.698;2023-05-13T01:58:24;13.90;99.90
1570;DHT22;778;50.120;8.698;2023-05-13T02:00:53;13.90;99.90
1570;DHT22;778;50.120;8.698;2023-05-13T02:03:21;13.90;99.90
1570;DHT22;778;50.120;8.698;2023-05-13T02:05:50;13.80;99.90
1570;DHT22;778;50.120;8.698;2023-05-13T02:08:18;13.90;99.90
1570;DHT22;778;50.120;8.698;2023-05-13T02:10:54;13.90;99.90
1570;DHT22;778;50.120;8.698;2023-05-13T02:13:24;13.90;99.90
1570;DHT22;778;50.120;8.698;2023-05-13T02:15:53;13.80;99.90
1570;DHT22;778;50.120;8.698;2023-05-13T02:18:22;13.90;99.90
1570;DHT22;778;50.120;8.698;2023-05-13T02:20:51;13.90;99.90
1570;DHT22;778;50.120;8.698;2023-05-13T02:23:19;13.90;99.90
1570;DHT22;778;50.120;8.698;2023-05-13T02:25:48;13.80;99.90
1570;DHT22;778;50.120;8.698;2023-05-13T02:28:16;13.80;99.90
1570;DHT22;778;50.120;8.698;2023-05-13T02:30:46;13.70;99.90
1570;DHT22;778;50.120;8.698;2023-05-13T02:33:15;13.70;99.90
1570;DHT22;778;50.120;8.698;2023-05-13T02:35:43;13.60;99.90
1570;DHT22;778;50.120;8.698;2023-05-13T02:38:12;13.60;99.90
1570;DHT22;778;50.120;8.698;2023-05-13T02:40:41;13.60;99.90
1570;DHT22;778;50.120;8.698;2023-05-13T02:43:10;13.50;99.90
1570;DHT22;778;50.120;8.698;2023-05-13T02:45:50;13.50;99.90
1570;DHT22;778;50.120;8.698;2023-05-13T02:48:20;13.50;99.90
1570;DHT22;778;50.120;8.698;2023-05-13T02:50:49;13.50;99.90
1570;DHT22;778;50.120;8.698;2023-05-13T02:53:18;13.50;99.90
1570;DHT22;778;50.120;8.698;2023-05-13T02:55:52;13.50;99.90
1570;DHT22;778;50.120;8.698;2023-05-13T02:58:24;13.40;99.90
1570;DHT22;778;50.120;8.698;2023-05-13T03:00:55;13.40;99.90
1570;DHT22;778;50.120;8.698;2023-05-13T03:03:24;13.40;99.90
1570;DHT22;778;50.120;8.698;2023-05-13T03:05:52;13.40;99.90
1570;DHT22;778;50.120;8.698;2023-05-13T03:08:21;13.20;99.90
1570;DHT22;778;50.120;8.698;2023-05-13T03:10:50;13.30;99.90
1570;DHT22;778;50.120;8.698;2023-05-13T03:13:18;13.20;99.90
1570;DHT22;778;50.120;8.698;2023-05-13T03:15:47;13.20;99.90
1570;DHT22;778;50.120;8.698;2023-05-13T03:18:17;13.20;99.90
1570;DHT22;778;50.120;8.698;2023-05-13T03:20:46;13.20;99.90
1570;DHT22;778;50.120;8.698;2023-05-13T03:23:14;13.20;99.90
1570;DHT22;778;50.120;8.698;2023-05-13T03:25:45;13.20;99.90
1570;DHT22;778;50.120;8.698;2023-05-13T03:28:14;13.20;99.90
1570;DHT22;778;50.120;8.698;2023-05-13T03:30:43;13.20;99.90
1570;DHT22;778;50.120;8.698;2023-05-13T03:33:17;13.20;99.90
1570;DHT22;778;50.120;8.698;2023-05-13T03:35:46;13.30;99.90
1570;DHT22;778;50.120;8.698;2023-05-13T03:38:18;13.20;99.90
1570;DHT22;778;50.120;8.698;2023-05-13T03:40:49;13.20;99.90
1570;DHT22;778;50.120;8.698;2023-05-13T03:43:17;13.20;99.90
1570;DHT22;778;50.120;8.698;2023-05-13T03:45:52;13.10;99.90
1570;DHT22;778;50.120;8.698;2023-05-13T03:48:23;13.10;99.90
1570;DHT22;778;50.120;8.698;2023-05-13T03:50:54;13.20;99.90
1570;DHT22;778;50.120;8.698;2023-05-13T03:53:23;13.10;99.90
1570;DHT22;778;50.120;8.698;2023-05-13T03:55:53;13.10;99.90
1570;DHT22;778;50.120;8.698;2023-05-13T03:58:21;13.00;99.90
1570;DHT22;778;50.120;8.698;2023-05-13T04:00:50;12.90;99.90
1570;DHT22;778;50.120;8.698;2023-05-13T04:03:18;12.90;99.90
1570;DHT22;778;50.120;8.698;2023-05-13T04:05:49;12.90;99.90
1570;DHT22;778;50.120;8.698;2023-05-13T04:08:18;12.80;99.90
1570;DHT22;778;50.120;8.698;2023-05-13T04:10:48;12.80;99.90
1570;DHT22;778;50.120;8.698;2023-05-13T04:13:17;12.80;99.90
1570;DHT22;778;50.120;8.698;2023-05-13T04:15:45;12.80;99.90
1570;DHT22;778;50.120;8.698;2023-05-13T04:18:14;12.80;99.90
1570;DHT22;778;50.120;8.698;2023-05-13T04:20:42;12.80;99.90
1570;DHT22;778;50.120;8.698;2023-05-13T04:23:12;12.80;99.90
1570;DHT22;778;50.120;8.698;2023-05-13T04:25:41;12.80;99.90
1570;DHT22;778;50.120;8.698;2023-05-13T04:28:09;12.80;99.90
1570;DHT22;778;50.120;8.698;2023-05-13T04:30:41;12.80;99.90
1570;DHT22;778;50.120;8.698;2023-05-13T04:33:11;12.80;99.90
1570;DHT22;778;50.120;8.698;2023-05-13T04:35:42;12.90;99.90
1570;DHT22;778;50.120;8.698;2023-05-13T04:38:13;12.90;99.90
1570;DHT22;778;50.120;8.698;2023-05-13T04:40:42;12.90;99.90
1570;DHT22;778;50.120;8.698;2023-05-13T04:43:14;13.00;99.90
1570;DHT22;778;50.120;8.698;2023-05-13T04:45:47;13.10;99.90
1570;DHT22;778;50.120;8.698;2023-05-13T04:48:16;13.00;99.90
1570;DHT22;778;50.120;8.698;2023-05-13T04:50:45;13.00;99.90
1570;DHT22;778;50.120;8.698;2023-05-13T04:53:17;13.10;99.90
1570;DHT22;778;50.120;8.698;2023-05-13T04:55:47;13.10;99.90
1570;DHT22;778;50.120;8.698;2023-05-13T04:58:15;13.10;99.90
1570;DHT22;778;50.120;8.698;2023-05-13T05:00:44;13.20;99.90
1570;DHT22;778;50.120;8.698;2023-05-13T05:03:13;13.20;99.90
1570;DHT22;778;50.120;8.698;2023-05-13T05:05:41;13.20;99.90
1570;DHT22;778;50.120;8.698;2023-05-13T05:08:12;13.20;99.90
1570;DHT22;778;50.120;8.698;2023-05-13T05:10:42;13.20;99.90
1570;DHT22;778;50.120;8.698;2023-05-13T05:13:11;13.20;99.90
1570;DHT22;778;50.120;8.698;2023-05-13T05:15:40;13.30;99.90
1570;DHT22;778;50.120;8.698;2023-05-13T05:18:09;13.30;99.90
1570;DHT22;778;50.120;8.698;2023-05-13T05:20:41;13.40;99.90
1570;DHT22;778;50.120;8.698;2023-05-13T05:23:14;13.40;99.90
1570;DHT22;778;50.120;8.698;2023-05-13T05:25:44;13.50;99.90
1570;DHT22;778;50.120;8.698;2023-05-13T05:28:16;13.50;99.90
1570;DHT22;778;50.120;8.698;2023-05-13T05:30:45;13.60;99.90
1570;DHT22;778;50.120;8.698;2023-05-13T05:33:25;13.60;99.90
1570;DHT22;778;50.120;8.698;2023-05-13T05:35:54;13.80;99.90
1570;DHT22;778;50.120;8.698;2023-05-13T05:38:23;13.90;99.90
1570;DHT22;778;50.120;8.698;2023-05-13T05:40:55;13.90;99.90
1570;DHT22;778;50.120;8.698;2023-05-13T05:43:24;14.00;99.90
1570;DHT22;778;50.120;8.698;2023-05-13T05:45:52;14.00;99.90
1570;DHT22;778;50.120;8.698;2023-05-13T05:48:21;14.10;99.90
1570;DHT22;778;50.120;8.698;2023-05-13T05:50:49;14.10;99.90
1570;DHT22;778;50.120;8.698;2023-05-13T05:53:25;14.20;99.90
1570;DHT22;778;50.120;8.698;2023-05-13T05:55:55;14.20;99.90
1570;DHT22;778;50.120;8.698;2023-05-13T05:58:23;14.30;99.90
1570;DHT22;778;50.120;8.698;2023-05-13T06:00:53;14.30;99.90
1570;DHT22;778;50.120;8.698;2023-05-13T06:03:23;14.50;99.90
1570;DHT22;778;50.120;8.698;2023-05-13T06:05:51;14.60;99.90
1570;DHT22;778;50.120;8.698;2023-05-13T06:08:20;14.80;99.90
1570;DHT22;778;50.120;8.698;2023-05-13T06:10:57;15.10;99.90
1570;DHT22;778;50.120;8.698;2023-05-13T06:13:26;15.30;99.90
1570;DHT22;778;50.120;8.698;2023-05-13T06:15:54;15.60;99.90
1570;DHT22;778;50.120;8.698;2023-05-13T06:18:24;15.80;99.90
1570;DHT22;778;50.120;8.698;2023-05-13T06:20:53;15.90;99.90
1570;DHT22;778;50.120;8.698;2023-05-13T06:23:21;16.10;99.90
1570;DHT22;778;50.120;8.698;2023-05-13T06:25:50;16.30;99.90
1570;DHT22;778;50.120;8.698;2023-05-13T06:28:20;16.80;99.90
1570;DHT22;778;50.120;8.698;2023-05-13T06:30:49;17.30;99.90
1570;DHT22;778;50.120;8.698;2023-05-13T06:33:20;17.80;99.90
1570;DHT22;778;50.120;8.698;2023-05-13T06:35:48;18.10;99.90
1570;DHT22;778;50.120;8.698;2023-05-13T06:38:19;18.30;99.90
1570;DHT22;778;50.120;8.698;2023-05-13T06:40:51;18.20;99.90
1570;DHT22;778;50.120;8.698;2023-05-13T06:43:27;17.80;99.90
1570;DHT22;778;50.120;8.698;2023-05-13T06:45:58;17.30;99.90
1570;DHT22;778;50.120;8.698;2023-05-13T06:48:27;16.90;99.90
1570;DHT22;778;50.120;8.698;2023-05-13T06:50:56;16.60;99.90
1570;DHT22;778;50.120;8.698;2023-05-13T06:53:24;16.40;99.90
1570;DHT22;778;50.120;8.698;2023-05-13T06:55:52;16.20;99.90
1570;DHT22;778;50.120;8.698;2023-05-13T06:58:21;16.20;99.90
1570;DHT22;778;50.120;8.698;2023-05-13T07:00:50;16.20;99.90
1570;DHT22;778;50.120;8.698;2023-05-13T07:03:19;16.50;99.90
1570;DHT22;778;50.120;8.698;2023-05-13T07:05:48;16.80;99.90
1570;DHT22;778;50.120;8.698;2023-05-13T07:08:17;16.70;99.90
1570;DHT22;778;50.120;8.698;2023-05-13T07:10:45;16.50;99.90
1570;DHT22;778;50.120;8.698;2023-05-13T07:13:14;16.50;99.90
1570;DHT22;778;50.120;8.698;2023-05-13T07:15:43;16.40;99.90
1570;DHT22;778;50.120;8.698;2023-05-13T07:18:14;16.70;99.90
1570;DHT22;778;50.120;8.698;2023-05-13T07:20:43;17.30;99.90
1570;DHT22;778;50.120;8.698;2023-05-13T07:23:11;17.90;99.90
1570;DHT22;778;50.120;8.698;2023-05-13T07:25:39;18.30;99.90
1570;DHT22;778;50.120;8.698;2023-05-13T07:28:08;18.70;99.90
1570;DHT22;778;50.120;8.698;2023-05-13T07:30:38;18.90;99.90
1570;DHT22;778;50.120;8.698;2023-05-13T07:33:07;19.10;99.90
1570;DHT22;778;50.120;8.698;2023-05-13T07:35:37;19.20;99.90
1570;DHT22;778;50.120;8.698;2023-05-13T07:38:08;19.20;99.90
1570;DHT22;778;50.120;8.698;2023-05-13T07:40:38;19.10;99.90
1570;DHT22;778;50.120;8.698;2023-05-13T07:43:06;19.30;99.90
1570;DHT22;778;50.120;8.698;2023-05-13T07:45:35;19.50;99.90
1570;DHT22;778;50.120;8.698;2023-05-13T07:48:05;19.10;99.90
1570;DHT22;778;50.120;8.698;2023-05-13T07:50:33;19.10;99.90
1570;DHT22;778;50.120;8.698;2023-05-13T07:53:03;19.10;99.90
1570;DHT22;778;50.120;8.698;2023-05-13T07:55:31;19.00;99.90
1570;DHT22;778;50.120;8.698;2023-05-13T07:58:01;18.80;99.90
1570;DHT22;778;50.120;8.698;2023-05-13T08:00:29;18.30;99.90
1570;DHT22;778;50.120;8.698;2023-05-13T08:02:58;18.10;99.90
1570;DHT22;778;50.120;8.698;2023-05-13T08:05:26;17.90;99.90
1570;DHT22;778;50.120;8.698;2023-05-13T08:07:55;18.00;99.90
1570;DHT22;778;50.120;8.698;2023-05-13T08:10:25;18.10;99.90
1570;DHT22;778;50.120;8.698;2023-05-13T08:12:53;18.30;99.90
1570;DHT22;778;50.120;8.698;2023-05-13T08:15:24;18.60;99.90
1570;DHT22;778;50.120;8.698;2023-05-13T08:17:53;18.90;99.90
1570;DHT22;778;50.120;8.698;2023-05-13T08:20:22;19.20;99.90
1570;DHT22;778;50.120;8.698;2023-05-13T08:22:55;19.80;99.90
1570;DHT22;778;50.120;8.698;2023-05-13T08:25:25;20.10;99.90
1570;DHT22;778;50.120;8.698;2023-05-13T08:27:54;20.40;99.90
1570;DHT22;778;50.120;8.698;2023-05-13T08:30:22;20.70;99.90
1570;DHT22;778;50.120;8.698;2023-05-13T08:32:50;20.90;99.90
1570;DHT22;778;50.120;8.698;2023-05-13T08:35:19;21.10;99.90
1570;DHT22;778;50.120;8.698;2023-05-13T08:37:48;21.30;99.90
1570;DHT22;778;50.120;8.698;2023-05-13T08:40:17;21.60;98.60
1570;DHT22;778;50.120;8.698;2023-05-13T08:42:49;22.10;97.90
1570;DHT22;778;50.120;8.698;2023-05-13T08:45:21;22.70;95.20
1570;DHT22;778;50.120;8.698;2023-05-13T08:47:55;22.90;94.80
1570;DHT22;778;50.120;8.698;2023-05-13T08:50:24;22.60;93.50
1570;DHT22;778;50.120;8.698;2023-05-13T08:52:53;21.80;94.00
1570;DHT22;778;50.120;8.698;2023-05-13T08:55:22;21.50;95.60
1570;DHT22;778;50.120;8.698;2023-05-13T08:57:52;21.70;95.50
1570;DHT22;778;50.120;8.698;2023-05-13T09:00:21;22.20;94.30
1570;DHT22;778;50.120;8.698;2023-05-13T09:02:50;22.20;95.50
1570;DHT22;778;50.120;8.698;2023-05-13T09:05:19;22.20;94.90
1570;DHT22;778;50.120;8.698;2023-05-13T09:07:49;22.50;94.10
1570;DHT22;778;50.120;8.698;2023-05-13T09:10:17;22.50;93.60
1570;DHT22;778;50.120;8.698;2023-05-13T09:12:48;22.90;93.60
1570;DHT22;778;50.120;8.698;2023-05-13T09:15:20;23.20;91.60
1570;DHT22;778;50.120;8.698;2023-05-13T09:17:51;23.20;92.20
1570;DHT22;778;50.120;8.698;2023-05-13T09:20:22;23.50;92.20
1570;DHT22;778;50.120;8.698;2023-05-13T09:22:54;23.40;85.80
1570;DHT22;778;50.120;8.698;2023-05-13T09:25:24;23.10;83.40
1570;DHT22;778;50.120;8.698;2023-05-13T09:27:54;22.80;82.40
1570;DHT22;778;50.120;8.698;2023-05-13T09:30:27;22.40;83.50
1570;DHT22;778;50.120;8.698;2023-05-13T09:33:05;22.60;83.60
1570;DHT22;778;50.120;8.698;2023-05-13T09:35:37;22.20;80.40
1570;DHT22;778;50.120;8.698;2023-05-13T09:38:14;22.30;77.80
1570;DHT22;778;50.120;8.698;2023-05-13T09:40:50;21.90;76.30
1570;DHT22;778;50.120;8.698;2023-05-13T09:43:20;22.00;75.80
1570;DHT22;778;50.120;8.698;2023-05-13T09:45:53;22.50;76.80
1570;DHT22;778;50.120;8.698;2023-05-13T09:48:24;23.30;77.50
1570;DHT22;778;50.120;8.698;2023-05-13T09:50:55;23.30;72.50
1570;DHT22;778;50.120;8.698;2023-05-13T09:53:24;23.10;73.40
1570;DHT22;778;50.120;8.698;2023-05-13T09:55:55;22.50;71.70
1570;DHT22;778;50.120;8.698;2023-05-13T09:58:26;22.10;73.30
1570;DHT22;778;50.120;8.698;2023-05-13T10:00:58;22.10;73.40
1570;DHT22;778;50.120;8.698;2023-05-13T10:03:27;22.80;77.90
1570;DHT22;778;50.120;8.698;2023-05-13T10:05:57;22.60;74.00
1570;DHT22;778;50.120;8.698;2023-05-13T10:08:29;22.60;73.40
1570;DHT22;778;50.120;8.698;2023-05-13T10:10:58;22.60;73.10
1570;DHT22;778;50.120;8.698;2023-05-13T10:13:27;22.80;72.20
1570;DHT22;778;50.120;8.698;2023-05-13T10:15:58;23.00;73.20
1570;DHT22;778;50.120;8.698;2023-05-13T10:18:27;23.20;71.60
1570;DHT22;778;50.120;8.698;2023-05-13T10:20:56;23.50;70.70
1570;DHT22;778;50.120;8.698;2023-05-13T10:23:25;23.30;69.20
1570;DHT22;778;50.120;8.698;2023-05-13T10:25:54;22.70;70.20
1570;DHT22;778;50.120;8.698;2023-05-13T10:28:24;22.90;71.10
1570;DHT22;778;50.120;8.698;2023-05-13T10:30:54;23.20;74.30
1570;DHT22;778;50.120;8.698;2023-05-13T10:33:25;23.10;77.00
1570;DHT22;778;50.120;8.698;2023-05-13T10:36:05;23.40;80.00
1570;DHT22;778;50.120;8.698;2023-05-13T10:38:52;23.50;75.60
1570;DHT22;778;50.120;8.698;2023-05-13T10:41:58;23.50;72.60
1570;DHT22;778;50.120;8.698;2023-05-13T10:44:38;23.00;70.40
1570;DHT22;778;50.120;8.698;2023-05-13T10:47:08;22.90;67.80
1570;DHT22;778;50.120;8.698;2023-05-13T10:49:49;22.60;69.10
1570;DHT22;778;50.120;8.698;2023-05-13T10:52:19;22.90;68.90
1570;DHT22;778;50.120;8.698;2023-05-13T10:54:59;22.90;70.70
1570;DHT22;778;50.120;8.698;2023-05-13T10:57:29;22.50;69.80
1570;DHT22;778;50.120;8.698;2023-05-13T11:00:13;22.60;72.60
1570;DHT22;778;50.120;8.698;2023-05-13T11:02:42;22.30;70.10
1570;DHT22;778;50.120;8.698;2023-05-13T11:05:20;22.10;73.50
1570;DHT22;778;50.120;8.698;2023-05-13T11:07:55;21.90;72.80
1570;DHT22;778;50.120;8.698;2023-05-13T11:10:25;21.50;75.40
1570;DHT22;778;50.120;8.698;2023-05-13T11:13:20;21.30;75.80
1570;DHT22;778;50.120;8.698;2023-05-13T11:15:51;21.00;72.70
1570;DHT22;778;50.120;8.698;2023-05-13T11:18:29;20.80;75.90
1570;DHT22;778;50.120;8.698;2023-05-13T11:21:03;20.60;78.90
1570;DHT22;778;50.120;8.698;2023-05-13T11:23:33;20.40;77.20
1570;DHT22;778;50.120;8.698;2023-05-13T11:26:17;20.50;76.70
1570;DHT22;778;50.120;8.698;2023-05-13T11:28:55;20.40;79.20
1570;DHT22;778;50.120;8.698;2023-05-13T11:31:26;20.40;78.20
1570;DHT22;778;50.120;8.698;2023-05-13T11:34:06;20.40;79.40
1570;DHT22;778;50.120;8.698;2023-05-13T11:36:38;20.20;77.00
1570;DHT22;778;50.120;8.698;2023-05-13T11:39:10;20.00;78.00
1570;DHT22;778;50.120;8.698;2023-05-13T11:41:41;19.90;78.90
1570;DHT22;778;50.120;8.698;2023-05-13T11:44:13;19.90;73.60
1570;DHT22;778;50.120;8.698;2023-05-13T11:46:49;19.80;74.00
1570;DHT22;778;50.120;8.698;2023-05-13T11:49:37;20.10;73.50
1570;DHT22;778;50.120;8.698;2023-05-13T11:52:09;20.20;72.30
1570;DHT22;778;50.120;8.698;2023-05-13T11:54:48;20.30;72.00
1570;DHT22;778;50.120;8.698;2023-05-13T11:57:20;20.30;73.10
1570;DHT22;778;50.120;8.698;2023-05-13T11:59:51;20.30;72.80
1570;DHT22;778;50.120;8.698;2023-05-13T12:02:22;20.20;73.50
1570;DHT22;778;50.120;8.698;2023-05-13T12:04:51;20.30;74.20
1570;DHT22;778;50.120;8.698;2023-05-13T12:07:24;20.30;72.10
1570;DHT22;778;50.120;8.698;2023-05-13T12:09:56;20.20;71.20
1570;DHT22;778;50.120;8.698;2023-05-13T12:12:26;20.30;72.40
1570;DHT22;778;50.120;8.698;2023-05-13T12:14:57;20.20;71.90
1570;DHT22;778;50.120;8.698;2023-05-13T12:17:27;20.30;70.20
1570;DHT22;778;50.120;8.698;2023-05-13T12:20:06;20.30;70.30
1570;DHT22;778;50.120;8.698;2023-05-13T12:22:49;20.40;71.30
1570;DHT22;778;50.120;8.698;2023-05-13T12:25:38;20.20;69.30
1570;DHT22;778;50.120;8.698;2023-05-13T12:28:13;20.10;69.50
1570;DHT22;778;50.120;8.698;2023-05-13T12:30:50;20.00;70.70
1570;DHT22;778;50.120;8.698;2023-05-13T12:33:20;20.00;71.30
1570;DHT22;778;50.120;8.698;2023-05-13T12:35:51;19.80;74.70
1570;DHT22;778;50.120;8.698;2023-05-13T12:38:22;19.60;77.80
1570;DHT22;778;50.120;8.698;2023-05-13T12:40:51;19.10;79.80
1570;DHT22;778;50.120;8.698;2023-05-13T12:43:21;19.00;82.10
1570;DHT22;778;50.120;8.698;2023-05-13T12:45:51;18.80;84.60
1570;DHT22;778;50.120;8.698;2023-05-13T12:48:24;18.70;86.20
1570;DHT22;778;50.120;8.698;2023-05-13T12:50:53;18.70;88.00
1570;DHT22;778;50.120;8.698;2023-05-13T12:53:24;18.90;89.90
1570;DHT22;778;50.120;8.698;2023-05-13T12:55:53;19.00;87.80
1570;DHT22;778;50.120;8.698;2023-05-13T12:58:21;19.10;90.20
1570;DHT22;778;50.120;8.698;2023-05-13T13:00:50;19.10;87.10
1570;DHT22;778;50.120;8.698;2023-05-13T13:03:18;19.20;86.50
1570;DHT22;778;50.120;8.698;2023-05-13T13:05:50;19.20;84.20
1570;DHT22;778;50.120;8.698;2023-05-13T13:08:19;19.10;85.40
1570;DHT22;778;50.120;8.698;2023-05-13T13:10:49;19.00;88.40
1570;DHT22;778;50.120;8.698;2023-05-13T13:13:18;18.80;87.90
1570;DHT22;778;50.120;8.698;2023-05-13T13:15:46;18.60;87.80
1570;DHT22;778;50.120;8.698;2023-05-13T13:18:15;18.80;87.20
1570;DHT22;778;50.120;8.698;2023-05-13T13:20:43;18.90;86.40
1570;DHT22;778;50.120;8.698;2023-05-13T13:23:12;18.90;85.20
1570;DHT22;778;50.120;8.698;2023-05-13T13:25:40;19.10;90.10
1570;DHT22;778;50.120;8.698;2023-05-13T13:28:10;19.10;91.00
1570;DHT22;778;50.120;8.698;2023-05-13T13:30:38;19.30;92.40
1570;DHT22;778;50.120;8.698;2023-05-13T13:33:13;19.30;91.70
1570;DHT22;778;50.120;8.698;2023-05-13T13:35:43;19.30;91.40
1570;DHT22;778;50.120;8.698;2023-05-13T13:38:11;19.10;90.70
1570;DHT22;778;50.120;8.698;2023-05-13T13:40:40;18.90;91.50
1570;DHT22;778;50.120;8.698;2023-05-13T13:43:10;19.00;91.00
1570;DHT22;778;50.120;8.698;2023-05-13T13:45:38;19.10;92.80
1570;DHT22;778;50.120;8.698;2023-05-13T13:48:07;18.80;91.40
1570;DHT22;778;50.120;8.698;2023-05-13T13:50:35;18.70;90.60
1570;DHT22;778;50.120;8.698;2023-05-13T13:53:03;18.70;91.70
1570;DHT22;778;50.120;8.698;2023-05-13T13:55:32;18.80;91.10
1570;DHT22;778;50.120;8.698;2023-05-13T13:58:00;19.00;90.20
1570;DHT22;778;50.120;8.698;2023-05-13T14:00:30;19.10;89.20
1570;DHT22;778;50.120;8.698;2023-05-13T14:02:59;19.10;89.10
1570;DHT22;778;50.120;8.698;2023-05-13T14:05:28;19.20;89.60
1570;DHT22;778;50.120;8.698;2023-05-13T14:07:56;19.20;87.90
1570;DHT22;778;50.120;8.698;2023-05-13T14:10:25;19.40;89.00
1570;DHT22;778;50.120;8.698;2023-05-13T14:12:53;19.70;90.00
1570;DHT22;778;50.120;8.698;2023-05-13T14:15:22;19.60;87.10
1570;DHT22;778;50.120;8.698;2023-05-13T14:17:56;19.60;85.50
1570;DHT22;778;50.120;8.698;2023-05-13T14:20:25;19.60;82.60
1570;DHT22;778;50.120;8.698;2023-05-13T14:22:55;19.70;84.80
1570;DHT22;778;50.120;8.698;2023-05-13T14:25:23;19.70;82.60
1570;DHT22;778;50.120;8.698;2023-05-13T14:27:52;19.60;80.80
1570;DHT22;778;50.120;8.698;2023-05-13T14:30:20;19.50;80.90
1570;DHT22;778;50.120;8.698;2023-05-13T14:32:50;19.60;81.40
1570;DHT22;778;50.120;8.698;2023-05-13T14:35:19;19.50;81.50
1570;DHT22;778;50.120;8.698;2023-05-13T14:37:48;19.60;83.40
1570;DHT22;778;50.120;8.698;2023-05-13T14:40:16;19.60;81.70
1570;DHT22;778;50.120;8.698;2023-05-13T14:42:45;19.70;81.10
1570;DHT22;778;50.120;8.698;2023-05-13T14:45:15;19.80;80.80
1570;DHT22;778;50.120;8.698;2023-05-13T14:47:44;19.80;81.90
1570;DHT22;778;50.120;8.698;2023-05-13T14:50:13;19.70;77.90
1570;DHT22;778;50.120;8.698;2023-05-13T14:52:43;19.90;76.20
1570;DHT22;778;50.120;8.698;2023-05-13T14:55:11;19.70;75.10
1570;DHT22;778;50.120;8.698;2023-05-13T14:57:40;19.60;75.60
1570;DHT22;778;50.120;8.698;2023-05-13T15:00:10;19.50;76.60
1570;DHT22;778;50.120;8.698;2023-05-13T15:02:39;19.50;76.30
1570;DHT22;778;50.120;8.698;2023-05-13T15:05:08;19.60;77.90
1570;DHT22;778;50.120;8.698;2023-05-13T15:07:37;19.80;78.10
1570;DHT22;778;50.120;8.698;2023-05-13T15:10:07;19.90;78.10
1570;DHT22;778;50.120;8.698;2023-05-13T15:12:36;20.00;78.40
1570;DHT22;778;50.120;8.698;2023-05-13T15:15:06;20.00;77.80
1570;DHT22;778;50.120;8.698;2023-05-13T15:17:35;20.10;77.90
1570;DHT22;778;50.120;8.698;2023-05-13T15:20:05;20.00;78.20
1570;DHT22;778;50.120;8.698;2023-05-13T15:22:34;20.20;80.70
1570;DHT22;778;50.120;8.698;2023-05-13T15:25:03;20.00;78.40
1570;DHT22;778;50.120;8.698;2023-05-13T15:27:33;19.70;78.40
1570;DHT22;778;50.120;8.698;2023-05-13T15:30:02;20.00;79.80
1570;DHT22;778;50.120;8.698;2023-05-13T15:32:30;19.80;79.90
1570;DHT22;778;50.120;8.698;2023-05-13T15:34:59;19.50;80.60
1570;DHT22;778;50.120;8.698;2023-05-13T15:37:27;19.50;81.20
1570;DHT22;778;50.120;8.698;2023-05-13T15:39:56;19.60;81.70
1570;DHT22;778;50.120;8.698;2023-05-13T15:42:24;19.50;81.50
1570;DHT22;778;50.120;8.698;2023-05-13T15:44:54;19.40;83.20
1570;DHT22;778;50.120;8.698;2023-05-13T15:47:23;19.60;82.80
1570;DHT22;778;50.120;8.698;2023-05-13T15:49:51;19.70;82.80
1570;DHT22;778;50.120;8.698;2023-05-13T15:52:20;19.70;83.50
1570;DHT22;778;50.120;8.698;2023-05-13T15:54:48;19.70;82.20
1570;DHT22;778;50.120;8.698;2023-05-13T15:57:17;19.70;83.10
1570;DHT22;778;50.120;8.698;2023-05-13T15:59:45;19.80;82.50
1570;DHT22;778;50.120;8.698;2023-05-13T16:02:15;19.90;82.00
1570;DHT22;778;50.120;8.698;2023-05-13T16:04:44;19.80;82.00
1570;DHT22;778;50.120;8.698;2023-05-13T16:07:13;19.90;81.50
1570;DHT22;778;50.120;8.698;2023-05-13T16:09:41;19.80;82.50
1570;DHT22;778;50.120;8.698;2023-05-13T16:12:10;19.90;83.20
1570;DHT22;778;50.120;8.698;2023-05-13T16:14:38;19.90;83.00
1570;DHT22;778;50.120;8.698;2023-05-13T16:17:06;19.80;82.50
1570;DHT22;778;50.120;8.698;2023-05-13T16:19:36;19.60;83.70
1570;DHT22;778;50.120;8.698;2023-05-13T16:22:23;19.60;84.20
1570;DHT22;778;50.120;8.698;2023-05-13T16:24:56;19.60;86.30
1570;DHT22;778;50.120;8.698;2023-05-13T16:27:26;19.80;86.00
1570;DHT22;778;50.120;8.698;2023-05-13T16:29:54;19.80;87.10
1570;DHT22;778;50.120;8.698;2023-05-13T16:32:24;19.70;87.00
1570;DHT22;778;50.120;8.698;2023-05-13T16:34:54;19.80;90.80
1570;DHT22;778;50.120;8.698;2023-05-13T16:37:23;19.80;91.10